sensor_id;sensor_type;location;lat;lon;timestamp;pressure;altitude;pressure_sealevel;temperature;humidity
40730;BME280;26418;50.070;8.436;2023-04-19T00:00:34;100820.44;;;10.15;76.56
40730;BME280;26418;50.070;8.436;2023-04-19T00:03:00;100819.91;;;10.13;76.97
40730;BME280;26418;50.070;8.436;2023-04-19T00:05:27;100812.34;;;10.10;77.06
40730;BME280;26418;50.070;8.436;2023-04-19T00:07:53;100812.88;;;10.17;77.02
40730;BME280;26418;50.070;8.436;2023-04-19T00:10:19;100798.56;;;10.11;76.89
40730;BME280;26418;50.070;8.436;2023-04-19T00:16:05;100816.94;;;10.14;77.03
40730;BME280;26418;50.070;8.436;2023-04-19T00:18:31;100811.53;;;10.14;77.11
40730;BME280;26418;50.070;8.436;2023-04-19T00:21:43;100811.22;;;10.21;76.85
40730;BME280;26418;50.070;8.436;2023-04-19T00:25:07;100797.69;;;10.21;76.64
40730;BME280;26418;50.070;8.436;2023-04-19T00:28:51;100805.00;;;10.20;76.64
40730;BME280;26418;50.070;8.436;2023-04-19T00:32:00;100807.72;;;10.20;76.66
40730;BME280;26418;50.070;8.436;2023-04-19T00:34:38;100801.47;;;10.20;76.64
40730;BME280;26418;50.070;8.436;2023-04-19T00:37:28;100800.41;;;10.21;76.67
40730;BME280;26418;50.070;8.436;2023-04-19T00:40:00;100803.09;;;10.21;76.42
40730;BME280;26418;50.070;8.436;2023-04-19T00:43:19;100796.91;;;10.20;76.67
40730;BME280;26418;50.070;8.436;2023-04-19T00:45:54;100796.66;;;10.17;76.76
40730;BME280;26418;50.070;8.436;2023-04-19T00:49:09;100796.41;;;10.13;77.00
40730;BME280;26418;50.070;8.436;2023-04-19T00:52:12;100789.09;;;10.09;77.25
40730;BME280;26418;50.070;8.436;2023-04-19T00:55:07;100783.69;;;10.03;77.35
40730;BME280;26418;50.070;8.436;2023-04-19T00:57:53;100791.25;;;10.12;77.37
40730;BME280;26418;50.070;8.436;2023-04-19T01:01:31;100782.31;;;10.16;77.14
40730;BME280;26418;50.070;8.436;2023-04-19T01:04:40;100792.59;;;10.19;77.16
40730;BME280;26418;50.070;8.436;2023-04-19T01:07:50;100779.09;;;10.14;77.34
40730;BME280;26418;50.070;8.436;2023-04-19T01:10:20;100766.94;;;10.06;77.30
40730;BME280;26418;50.070;8.436;2023-04-19T01:12:46;100774.78;;;10.13;77.18
40730;BME280;26418;50.070;8.436;2023-04-19T01:15:16;100777.72;;;10.17;77.49
40730;BME280;26418;50.070;8.436;2023-04-19T01:18:18;100768.53;;;10.13;77.42
40730;BME280;26418;50.070;8.436;2023-04-19T01:21:11;100775.88;;;10.07;77.45
40730;BME280;26418;50.070;8.436;2023-04-19T01:24:04;100767.78;;;10.07;77.56
40730;BME280;26418;50.070;8.436;2023-04-19T01:26:40;100771.28;;;10.02;78.00
40730;BME280;26418;50.070;8.436;2023-04-19T01:29:06;100760.75;;;10.01;78.05
40730;BME280;26418;50.070;8.436;2023-04-19T01:31:33;100756.16;;;10.01;77.88
40730;BME280;26418;50.070;8.436;2023-04-19T01:34:05;100768.59;;;10.02;78.07
40730;BME280;26418;50.070;8.436;2023-04-19T01:37:00;100759.94;;;10.00;78.53
40730;BME280;26418;50.070;8.436;2023-04-19T01:39:38;100760.22;;;9.99;78.62
40730;BME280;26418;50.070;8.436;2023-04-19T01:42:20;100759.69;;;9.97;78.81
40730;BME280;26418;50.070;8.436;2023-04-19T01:45:03;100756.69;;;9.98;78.76
40730;BME280;26418;50.070;8.436;2023-04-19T01:48:11;100757.81;;;9.92;78.87
40730;BME280;26418;50.070;8.436;2023-04-19T01:50:37;100758.59;;;9.93;79.20
40730;BME280;26418;50.070;8.436;2023-04-19T01:53:02;100753.19;;;9.93;79.08
40730;BME280;26418;50.070;8.436;2023-04-19T01:55:27;100748.38;;;9.89;79.32
40730;BME280;26418;50.070;8.436;2023-04-19T01:57:53;100749.44;;;9.88;79.18
40730;BME280;26418;50.070;8.436;2023-04-19T02:00:19;100733.50;;;9.92;79.22
40730;BME280;26418;50.070;8.436;2023-04-19T02:02:44;100740.53;;;9.93;79.05
40730;BME280;26418;50.070;8.436;2023-04-19T02:05:10;100738.31;;;9.95;79.56
40730;BME280;26418;50.070;8.436;2023-04-19T02:07:36;100742.41;;;9.98;78.77
40730;BME280;26418;50.070;8.436;2023-04-19T02:10:01;100733.75;;;9.90;79.06
40730;BME280;26418;50.070;8.436;2023-04-19T02:12:27;100732.66;;;9.91;79.42
40730;BME280;26418;50.070;8.436;2023-04-19T02:14:54;100730.78;;;9.92;79.60
40730;BME280;26418;50.070;8.436;2023-04-19T02:17:25;100728.63;;;9.89;79.68
40730;BME280;26418;50.070;8.436;2023-04-19T02:19:51;100730.25;;;9.90;79.69
40730;BME280;26418;50.070;8.436;2023-04-19T02:22:17;100716.78;;;9.85;79.83
40730;BME280;26418;50.070;8.436;2023-04-19T02:24:42;100723.78;;;9.86;79.56
40730;BME280;26418;50.070;8.436;2023-04-19T02:27:08;100718.97;;;9.78;79.94
40730;BME280;26418;50.070;8.436;2023-04-19T02:29:33;100726.25;;;9.77;80.15
40730;BME280;26418;50.070;8.436;2023-04-19T02:31:58;100719.47;;;9.80;80.03
40730;BME280;26418;50.070;8.436;2023-04-19T02:34:24;100734.06;;;9.84;79.78
40730;BME280;26418;50.070;8.436;2023-04-19T02:36:51;100722.94;;;9.90;79.96
40730;BME280;26418;50.070;8.436;2023-04-19T02:39:16;100720.53;;;9.89;79.87
40730;BME280;26418;50.070;8.436;2023-04-19T02:41:42;100717.31;;;9.82;80.17
40730;BME280;26418;50.070;8.436;2023-04-19T02:44:07;100709.50;;;9.75;80.36
40730;BME280;26418;50.070;8.436;2023-04-19T02:46:32;100713.28;;;9.74;80.29
40730;BME280;26418;50.070;8.436;2023-04-19T02:48:59;100718.13;;;9.77;80.31
40730;BME280;26418;50.070;8.436;2023-04-19T02:51:25;100708.44;;;9.71;80.46
40730;BME280;26418;50.070;8.436;2023-04-19T02:53:51;100711.66;;;9.78;80.45
40730;BME280;26418;50.070;8.436;2023-04-19T02:56:16;100714.06;;;9.80;80.25
40730;BME280;26418;50.070;8.436;2023-04-19T02:58:42;100713.00;;;9.86;80.13
40730;BME280;26418;50.070;8.436;2023-04-19T03:01:08;100714.88;;;9.85;80.01
40730;BME280;26418;50.070;8.436;2023-04-19T03:03:33;100705.72;;;9.76;80.25
40730;BME280;26418;50.070;8.436;2023-04-19T03:05:58;100712.22;;;9.70;80.46
40730;BME280;26418;50.070;8.436;2023-04-19T03:08:24;100708.72;;;9.69;80.73
40730;BME280;26418;50.070;8.436;2023-04-19T03:10:49;100703.31;;;9.64;80.89
40730;BME280;26418;50.070;8.436;2023-04-19T03:13:14;100703.06;;;9.60;81.22
40730;BME280;26418;50.070;8.436;2023-04-19T03:15:40;100695.78;;;9.56;81.59
40730;BME280;26418;50.070;8.436;2023-04-19T03:18:05;100691.44;;;9.55;81.73
40730;BME280;26418;50.070;8.436;2023-04-19T03:20:30;100691.72;;;9.58;81.82
40730;BME280;26418;50.070;8.436;2023-04-19T03:22:56;100671.50;;;9.46;81.38
40730;BME280;26418;50.070;8.436;2023-04-19T03:25:21;100696.03;;;9.59;81.53
40730;BME280;26418;50.070;8.436;2023-04-19T03:27:46;100677.72;;;9.46;81.62
40730;BME280;26418;50.070;8.436;2023-04-19T03:30:12;100675.28;;;9.39;82.06
40730;BME280;26418;50.070;8.436;2023-04-19T03:32:38;100676.91;;;9.40;82.30
40730;BME280;26418;50.070;8.436;2023-04-19T03:35:03;100686.06;;;9.44;82.40
40730;BME280;26418;50.070;8.436;2023-04-19T03:37:29;100682.56;;;9.44;82.52
40730;BME280;26418;50.070;8.436;2023-04-19T03:39:54;100680.41;;;9.41;82.19
40730;BME280;26418;50.070;8.436;2023-04-19T03:42:19;100673.13;;;9.36;82.55
40730;BME280;26418;50.070;8.436;2023-04-19T03:44:44;100676.41;;;9.33;82.69
40730;BME280;26418;50.070;8.436;2023-04-19T03:47:10;100670.44;;;9.31;83.24
40730;BME280;26418;50.070;8.436;2023-04-19T03:49:35;100665.06;;;9.21;83.16
40730;BME280;26418;50.070;8.436;2023-04-19T03:52:01;100666.41;;;9.23;83.42
40730;BME280;26418;50.070;8.436;2023-04-19T03:54:26;100666.16;;;9.25;83.33
40730;BME280;26418;50.070;8.436;2023-04-19T03:56:51;100653.47;;;9.15;84.16
40730;BME280;26418;50.070;8.436;2023-04-19T03:59:16;100653.75;;;9.19;83.73
40730;BME280;26418;50.070;8.436;2023-04-19T04:01:42;100661.31;;;9.27;84.14
40730;BME280;26418;50.070;8.436;2023-04-19T04:04:07;100661.31;;;9.27;84.01
40730;BME280;26418;50.070;8.436;2023-04-19T04:06:33;100662.63;;;9.24;84.29
40730;BME280;26418;50.070;8.436;2023-04-19T04:08:59;100669.94;;;9.24;84.57
40730;BME280;26418;50.070;8.436;2023-04-19T04:11:24;100673.19;;;9.26;84.72
40730;BME280;26418;50.070;8.436;2023-04-19T04:13:50;100662.13;;;9.22;85.39
40730;BME280;26418;50.070;8.436;2023-04-19T04:16:15;100673.97;;;9.26;85.30
40730;BME280;26418;50.070;8.436;2023-04-19T04:18:40;100673.69;;;9.33;85.49
40730;BME280;26418;50.070;8.436;2023-04-19T04:21:05;100670.44;;;9.31;85.66
40730;BME280;26418;50.070;8.436;2023-04-19T04:23:31;100670.72;;;9.40;85.53
40730;BME280;26418;50.070;8.436;2023-04-19T04:25:58;100672.84;;;9.53;85.14
40730;BME280;26418;50.070;8.436;2023-04-19T04:28:28;100680.41;;;9.56;85.10
40730;BME280;26418;50.070;8.436;2023-04-19T04:30:54;100682.00;;;9.57;85.24
40730;BME280;26418;50.070;8.436;2023-04-19T04:33:23;100681.75;;;9.59;85.37
40730;BME280;26418;50.070;8.436;2023-04-19T04:35:49;100666.91;;;9.51;85.33
40730;BME280;26418;50.070;8.436;2023-04-19T04:38:15;100680.13;;;9.58;85.12
40730;BME280;26418;50.070;8.436;2023-04-19T04:40:40;100676.06;;;9.60;85.28
40730;BME280;26418;50.070;8.436;2023-04-19T04:43:06;100681.16;;;9.67;85.02
40730;BME280;26418;50.070;8.436;2023-04-19T04:45:32;100682.50;;;9.70;85.25
40730;BME280;26418;50.070;8.436;2023-04-19T04:47:57;100676.31;;;9.69;85.26
40730;BME280;26418;50.070;8.436;2023-04-19T04:50:23;100674.41;;;9.70;85.21
40730;BME280;26418;50.070;8.436;2023-04-19T04:52:48;100677.66;;;9.72;85.29
40730;BME280;26418;50.070;8.436;2023-04-19T04:55:13;100683.03;;;9.72;85.24
40730;BME280;26418;50.070;8.436;2023-04-19T04:57:39;100681.44;;;9.71;85.30
40730;BME280;26418;50.070;8.436;2023-04-19T05:00:04;100674.41;;;9.70;85.27
40730;BME280;26418;50.070;8.436;2023-04-19T05:02:31;100671.97;;;9.68;85.59
40730;BME280;26418;50.070;8.436;2023-04-19T05:04:56;100658.19;;;9.70;85.32
40730;BME280;26418;50.070;8.436;2023-04-19T05:07:21;100676.81;;;9.77;85.06
40730;BME280;26418;50.070;8.436;2023-04-19T05:09:47;100667.91;;;9.71;85.22
40730;BME280;26418;50.070;8.436;2023-04-19T05:12:12;100664.41;;;9.70;85.09
40730;BME280;26418;50.070;8.436;2023-04-19T05:14:38;100663.88;;;9.68;85.19
40730;BME280;26418;50.070;8.436;2023-04-19T05:17:03;100662.81;;;9.69;84.96
40730;BME280;26418;50.070;8.436;2023-04-19T05:19:28;100650.94;;;9.60;85.32
40730;BME280;26418;50.070;8.436;2023-04-19T05:21:54;100662.50;;;9.76;84.66
40730;BME280;26418;50.070;8.436;2023-04-19T05:24:19;100661.69;;;9.75;84.74
40730;BME280;26418;50.070;8.436;2023-04-19T05:26:45;100664.66;;;9.79;84.10
40730;BME280;26418;50.070;8.436;2023-04-19T05:29:10;100649.25;;;9.74;83.90
40730;BME280;26418;50.070;8.436;2023-04-19T05:31:35;100653.81;;;9.84;83.45
40730;BME280;26418;50.070;8.436;2023-04-19T05:34:01;100652.44;;;9.87;83.63
40730;BME280;26418;50.070;8.436;2023-04-19T05:36:26;100652.47;;;9.82;83.28
40730;BME280;26418;50.070;8.436;2023-04-19T05:38:52;100657.59;;;9.88;83.17
40730;BME280;26418;50.070;8.436;2023-04-19T05:41:17;100645.16;;;9.87;82.90
40730;BME280;26418;50.070;8.436;2023-04-19T05:43:42;100655.59;;;10.04;82.65
40730;BME280;26418;50.070;8.436;2023-04-19T05:46:08;100648.84;;;10.07;81.97
40730;BME280;26418;50.070;8.436;2023-04-19T05:48:33;100652.06;;;10.14;81.65
40730;BME280;26418;50.070;8.436;2023-04-19T05:50:58;100647.94;;;10.22;81.62
40730;BME280;26418;50.070;8.436;2023-04-19T05:53:24;100645.19;;;10.32;80.14
40730;BME280;26418;50.070;8.436;2023-04-19T05:55:49;100645.97;;;10.38;80.22
40730;BME280;26418;50.070;8.436;2023-04-19T05:58:16;100644.91;;;10.39;79.68
40730;BME280;26418;50.070;8.436;2023-04-19T06:00:41;100651.09;;;10.45;79.22
40730;BME280;26418;50.070;8.436;2023-04-19T06:03:07;100643.72;;;10.50;78.59
40730;BME280;26418;50.070;8.436;2023-04-19T06:05:32;100642.88;;;10.55;78.26
40730;BME280;26418;50.070;8.436;2023-04-19T06:07:58;100646.94;;;10.58;77.60
40730;BME280;26418;50.070;8.436;2023-04-19T06:10:23;100637.94;;;10.62;77.14
40730;BME280;26418;50.070;8.436;2023-04-19T06:12:49;100638.22;;;10.66;76.48
40730;BME280;26418;50.070;8.436;2023-04-19T06:15:14;100646.59;;;10.64;77.20
40730;BME280;26418;50.070;8.436;2023-04-19T06:17:39;100651.38;;;10.78;75.88
40730;BME280;26418;50.070;8.436;2023-04-19T06:20:06;100652.88;;;10.89;75.69
40730;BME280;26418;50.070;8.436;2023-04-19T06:22:32;100646.34;;;10.95;74.09
40730;BME280;26418;50.070;8.436;2023-04-19T06:24:58;100651.19;;;10.98;74.15
40730;BME280;26418;50.070;8.436;2023-04-19T06:27:23;100652.19;;;11.08;73.08
40730;BME280;26418;50.070;8.436;2023-04-19T06:29:48;100653.50;;;11.10;73.03
40730;BME280;26418;50.070;8.436;2023-04-19T06:32:14;100649.31;;;11.23;72.91
40730;BME280;26418;50.070;8.436;2023-04-19T06:34:39;100657.63;;;11.32;72.14
40730;BME280;26418;50.070;8.436;2023-04-19T06:37:04;100647.38;;;11.29;71.18
40730;BME280;26418;50.070;8.436;2023-04-19T06:39:30;100651.69;;;11.30;70.72
40730;BME280;26418;50.070;8.436;2023-04-19T06:41:55;100660.59;;;11.30;70.09
40730;BME280;26418;50.070;8.436;2023-04-19T06:44:20;100663.91;;;11.27;70.94
40730;BME280;26418;50.070;8.436;2023-04-19T06:46:46;100654.19;;;11.21;70.74
40730;BME280;26418;50.070;8.436;2023-04-19T06:49:11;100654.50;;;11.20;70.00
40730;BME280;26418;50.070;8.436;2023-04-19T06:51:37;100661.22;;;11.22;70.79
40730;BME280;26418;50.070;8.436;2023-04-19T06:54:03;100665.09;;;11.16;69.09
40730;BME280;26418;50.070;8.436;2023-04-19T06:56:39;100660.75;;;11.15;69.07
40730;BME280;26418;50.070;8.436;2023-04-19T06:59:06;100658.69;;;11.07;67.86
40730;BME280;26418;50.070;8.436;2023-04-19T07:01:31;100645.22;;;11.01;68.27
40730;BME280;26418;50.070;8.436;2023-04-19T07:03:57;100652.19;;;11.08;67.90
40730;BME280;26418;50.070;8.436;2023-04-19T07:06:22;100652.97;;;11.08;67.61
40730;BME280;26418;50.070;8.436;2023-04-19T07:08:47;100654.34;;;11.06;66.94
40730;BME280;26418;50.070;8.436;2023-04-19T07:11:12;100646.28;;;11.00;66.79
40730;BME280;26418;50.070;8.436;2023-04-19T07:13:38;100637.69;;;10.93;67.09
40730;BME280;26418;50.070;8.436;2023-04-19T07:16:04;100646.66;;;11.18;76.19
40730;BME280;26418;50.070;8.436;2023-04-19T07:18:29;100644.34;;;11.30;69.63
40730;BME280;26418;50.070;8.436;2023-04-19T07:20:55;100647.94;;;11.50;68.40
40730;BME280;26418;50.070;8.436;2023-04-19T07:23:20;100641.25;;;11.67;65.67
40730;BME280;26418;50.070;8.436;2023-04-19T07:25:45;100641.91;;;11.58;65.17
40730;BME280;26418;50.070;8.436;2023-04-19T07:28:11;100645.00;;;11.71;68.38
40730;BME280;26418;50.070;8.436;2023-04-19T07:30:36;100642.56;;;11.69;65.45
40730;BME280;26418;50.070;8.436;2023-04-19T07:33:02;100636.28;;;11.74;63.24
40730;BME280;26418;50.070;8.436;2023-04-19T07:35:29;100628.16;;;11.74;63.59
40730;BME280;26418;50.070;8.436;2023-04-19T07:37:54;100635.72;;;11.77;62.14
40730;BME280;26418;50.070;8.436;2023-04-19T07:40:20;100638.66;;;11.80;62.02
40730;BME280;26418;50.070;8.436;2023-04-19T07:42:45;100634.63;;;11.78;61.88
40730;BME280;26418;50.070;8.436;2023-04-19T07:45:10;100630.22;;;11.82;62.62
40730;BME280;26418;50.070;8.436;2023-04-19T07:47:36;100623.63;;;11.88;62.35
40730;BME280;26418;50.070;8.436;2023-04-19T07:50:01;100624.97;;;11.91;62.04
40730;BME280;26418;50.070;8.436;2023-04-19T07:52:27;100621.84;;;12.03;61.41
40730;BME280;26418;50.070;8.436;2023-04-19T07:54:52;100630.50;;;12.24;61.98
40730;BME280;26418;50.070;8.436;2023-04-19T07:57:18;100621.59;;;12.37;61.08
40730;BME280;26418;50.070;8.436;2023-04-19T07:59:43;100619.13;;;12.41;60.28
40730;BME280;26418;50.070;8.436;2023-04-19T08:02:08;100622.25;;;12.48;59.85
40730;BME280;26418;50.070;8.436;2023-04-19T08:04:34;100626.78;;;12.53;59.05
40730;BME280;26418;50.070;8.436;2023-04-19T08:06:59;100630.75;;;12.61;59.04
40730;BME280;26418;50.070;8.436;2023-04-19T08:09:25;100625.31;;;12.61;58.71
40730;BME280;26418;50.070;8.436;2023-04-19T08:11:50;100626.41;;;12.60;57.98
40730;BME280;26418;50.070;8.436;2023-04-19T08:14:17;100619.97;;;12.55;57.72
40730;BME280;26418;50.070;8.436;2023-04-19T08:16:43;100605.28;;;12.56;57.81
40730;BME280;26418;50.070;8.436;2023-04-19T08:19:08;100621.19;;;12.63;57.59
40730;BME280;26418;50.070;8.436;2023-04-19T08:21:33;100607.06;;;12.66;57.66
40730;BME280;26418;50.070;8.436;2023-04-19T08:23:58;100610.81;;;12.84;57.25
40730;BME280;26418;50.070;8.436;2023-04-19T08:26:24;100605.59;;;12.88;56.29
40730;BME280;26418;50.070;8.436;2023-04-19T08:28:49;100608.31;;;13.02;55.93
40730;BME280;26418;50.070;8.436;2023-04-19T08:31:16;100606.50;;;12.97;55.05
40730;BME280;26418;50.070;8.436;2023-04-19T08:33:41;100602.38;;;13.00;55.10
40730;BME280;26418;50.070;8.436;2023-04-19T08:36:07;100593.94;;;13.15;55.41
40730;BME280;26418;50.070;8.436;2023-04-19T08:38:32;100597.28;;;13.40;54.27
40730;BME280;26418;50.070;8.436;2023-04-19T08:40:58;100603.03;;;13.52;54.54
40730;BME280;26418;50.070;8.436;2023-04-19T08:43:29;100596.50;;;13.54;53.52
40730;BME280;26418;50.070;8.436;2023-04-19T08:45:57;100596.06;;;13.60;53.86
40730;BME280;26418;50.070;8.436;2023-04-19T08:48:24;100600.84;;;13.55;53.75
40730;BME280;26418;50.070;8.436;2023-04-19T08:50:51;100597.19;;;13.59;53.62
40730;BME280;26418;50.070;8.436;2023-04-19T08:53:18;100594.50;;;13.59;54.08
40730;BME280;26418;50.070;8.436;2023-04-19T08:55:44;100590.94;;;13.73;53.80
40730;BME280;26418;50.070;8.436;2023-04-19T08:58:10;100589.66;;;13.93;53.87
40730;BME280;26418;50.070;8.436;2023-04-19T09:00:37;100581.66;;;14.10;53.08
40730;BME280;26418;50.070;8.436;2023-04-19T09:03:06;100592.81;;;14.23;51.80
40730;BME280;26418;50.070;8.436;2023-04-19T09:05:31;100583.91;;;14.31;50.72
40730;BME280;26418;50.070;8.436;2023-04-19T09:08:20;100583.69;;;14.27;51.31
40730;BME280;26418;50.070;8.436;2023-04-19T09:10:54;100572.03;;;14.27;51.39
40730;BME280;26418;50.070;8.436;2023-04-19T09:13:20;100571.88;;;14.32;50.21
40730;BME280;26418;50.070;8.436;2023-04-19T09:15:46;100583.28;;;14.34;50.51
40730;BME280;26418;50.070;8.436;2023-04-19T09:18:11;100574.13;;;14.30;50.92
40730;BME280;26418;50.070;8.436;2023-04-19T09:20:40;100578.56;;;14.49;50.23
40730;BME280;26418;50.070;8.436;2023-04-19T09:23:08;100581.66;;;14.78;50.45
40730;BME280;26418;50.070;8.436;2023-04-19T09:25:34;100563.63;;;14.91;49.65
40730;BME280;26418;50.070;8.436;2023-04-19T09:28:12;100570.94;;;15.22;49.81
40730;BME280;26418;50.070;8.436;2023-04-19T09:30:39;100572.97;;;15.57;49.43
40730;BME280;26418;50.070;8.436;2023-04-19T09:33:06;100565.13;;;15.73;46.99
40730;BME280;26418;50.070;8.436;2023-04-19T09:35:45;100570.41;;;15.61;47.66
40730;BME280;26418;50.070;8.436;2023-04-19T09:38:15;100564.25;;;15.37;47.51
40730;BME280;26418;50.070;8.436;2023-04-19T09:40:41;100563.28;;;15.33;46.91
40730;BME280;26418;50.070;8.436;2023-04-19T09:43:06;100560.75;;;15.46;47.08
40730;BME280;26418;50.070;8.436;2023-04-19T09:45:42;100571.38;;;15.56;46.39
40730;BME280;26418;50.070;8.436;2023-04-19T09:48:09;100570.06;;;15.45;46.12
40730;BME280;26418;50.070;8.436;2023-04-19T09:50:49;100555.53;;;15.18;46.50
40730;BME280;26418;50.070;8.436;2023-04-19T09:53:16;100563.44;;;15.37;47.10
40730;BME280;26418;50.070;8.436;2023-04-19T09:55:44;100556.25;;;15.50;46.16
40730;BME280;26418;50.070;8.436;2023-04-19T09:58:13;100551.59;;;15.41;46.23
40730;BME280;26418;50.070;8.436;2023-04-19T10:00:40;100542.78;;;15.45;46.43
40730;BME280;26418;50.070;8.436;2023-04-19T10:03:08;100547.78;;;15.60;46.17
40730;BME280;26418;50.070;8.436;2023-04-19T10:05:36;100549.75;;;15.77;45.62
40730;BME280;26418;50.070;8.436;2023-04-19T10:08:06;100546.88;;;15.91;44.71
40730;BME280;26418;50.070;8.436;2023-04-19T10:10:31;100547.34;;;15.93;45.08
40730;BME280;26418;50.070;8.436;2023-04-19T10:12:58;100547.34;;;15.93;44.91
40730;BME280;26418;50.070;8.436;2023-04-19T10:15:25;100543.66;;;15.98;44.88
40730;BME280;26418;50.070;8.436;2023-04-19T10:17:54;100549.59;;;16.09;45.39
40730;BME280;26418;50.070;8.436;2023-04-19T10:20:24;100534.53;;;16.11;45.77
40730;BME280;26418;50.070;8.436;2023-04-19T10:22:51;100544.75;;;16.41;45.16
40730;BME280;26418;50.070;8.436;2023-04-19T10:25:17;100531.56;;;16.52;44.38
40730;BME280;26418;50.070;8.436;2023-04-19T10:27:43;100528.69;;;16.48;43.72
40730;BME280;26418;50.070;8.436;2023-04-19T10:30:21;100532.84;;;16.45;44.17
40730;BME280;26418;50.070;8.436;2023-04-19T10:32:59;100521.00;;;16.32;43.91
40730;BME280;26418;50.070;8.436;2023-04-19T10:35:34;100546.22;;;16.12;44.20
40730;BME280;26418;50.070;8.436;2023-04-19T10:38:12;100549.59;;;16.00;44.05
40730;BME280;26418;50.070;8.436;2023-04-19T10:43:24;100542.41;;;15.86;43.59
40730;BME280;26418;50.070;8.436;2023-04-19T10:45:50;100528.38;;;15.79;43.10
40730;BME280;26418;50.070;8.436;2023-04-19T10:48:30;100533.06;;;15.79;42.59
40730;BME280;26418;50.070;8.436;2023-04-19T10:51:02;100535.34;;;15.85;43.62
40730;BME280;26418;50.070;8.436;2023-04-19T10:57:00;100530.31;;;15.79;41.91
40730;BME280;26418;50.070;8.436;2023-04-19T10:59:29;100533.53;;;15.81;42.77
40730;BME280;26418;50.070;8.436;2023-04-19T11:01:57;100522.50;;;15.86;42.75
40730;BME280;26418;50.070;8.436;2023-04-19T11:07:14;100520.22;;;15.97;41.86
40730;BME280;26418;50.070;8.436;2023-04-19T11:09:46;100495.84;;;16.09;42.39
40730;BME280;26418;50.070;8.436;2023-04-19T11:12:17;100492.38;;;16.47;41.20
40730;BME280;26418;50.070;8.436;2023-04-19T11:14:45;100494.59;;;16.54;40.41
40730;BME280;26418;50.070;8.436;2023-04-19T11:17:25;100488.31;;;16.62;39.65
40730;BME280;26418;50.070;8.436;2023-04-19T11:20:03;100472.69;;;16.72;39.95
40730;BME280;26418;50.070;8.436;2023-04-19T11:22:39;100468.09;;;16.93;39.59
40730;BME280;26418;50.070;8.436;2023-04-19T11:27:32;100481.28;;;17.21;37.64
40730;BME280;26418;50.070;8.436;2023-04-19T11:30:02;100475.06;;;17.12;36.92
40730;BME280;26418;50.070;8.436;2023-04-19T11:32:28;100475.34;;;16.89;37.37
40730;BME280;26418;50.070;8.436;2023-04-19T11:34:55;100470.66;;;16.90;36.65
40730;BME280;26418;50.070;8.436;2023-04-19T11:37:21;100473.38;;;16.99;36.81
40730;BME280;26418;50.070;8.436;2023-04-19T11:39:46;100453.22;;;17.12;36.59
40730;BME280;26418;50.070;8.436;2023-04-19T11:42:21;100460.03;;;17.48;34.79
40730;BME280;26418;50.070;8.436;2023-04-19T11:44:50;100469.03;;;17.49;36.00
40730;BME280;26418;50.070;8.436;2023-04-19T11:47:17;100458.75;;;17.24;35.55
40730;BME280;26418;50.070;8.436;2023-04-19T11:49:43;100446.75;;;17.38;36.31
40730;BME280;26418;50.070;8.436;2023-04-19T11:52:08;100435.59;;;17.43;33.77
40730;BME280;26418;50.070;8.436;2023-04-19T11:54:33;100438.34;;;17.43;33.08
40730;BME280;26418;50.070;8.436;2023-04-19T11:57:06;100428.59;;;17.54;33.52
40730;BME280;26418;50.070;8.436;2023-04-19T11:59:33;100427.50;;;17.68;33.33
40730;BME280;26418;50.070;8.436;2023-04-19T12:02:07;100436.16;;;17.57;33.08
40730;BME280;26418;50.070;8.436;2023-04-19T12:04:32;100441.19;;;17.47;32.53
40730;BME280;26418;50.070;8.436;2023-04-19T12:06:59;100433.19;;;17.63;32.81
40730;BME280;26418;50.070;8.436;2023-04-19T12:09:25;100427.47;;;17.89;33.71
40730;BME280;26418;50.070;8.436;2023-04-19T12:11:50;100423.56;;;17.99;32.35
40730;BME280;26418;50.070;8.436;2023-04-19T12:14:18;100418.91;;;18.12;32.84
40730;BME280;26418;50.070;8.436;2023-04-19T12:16:45;100418.25;;;18.39;31.86
40730;BME280;26418;50.070;8.436;2023-04-19T12:19:11;100421.09;;;18.43;31.75
40730;BME280;26418;50.070;8.436;2023-04-19T12:21:38;100412.34;;;18.62;31.15
40730;BME280;26418;50.070;8.436;2023-04-19T12:24:06;100420.19;;;18.64;30.87
40730;BME280;26418;50.070;8.436;2023-04-19T12:26:32;100422.00;;;18.35;30.08
40730;BME280;26418;50.070;8.436;2023-04-19T12:28:59;100401.09;;;18.05;30.99
40730;BME280;26418;50.070;8.436;2023-04-19T12:31:24;100401.59;;;17.86;30.68
40730;BME280;26418;50.070;8.436;2023-04-19T12:33:50;100401.09;;;17.72;31.81
40730;BME280;26418;50.070;8.436;2023-04-19T12:36:15;100411.00;;;17.22;31.79
40730;BME280;26418;50.070;8.436;2023-04-19T12:38:41;100401.81;;;17.05;31.56
40730;BME280;26418;50.070;8.436;2023-04-19T12:41:06;100399.31;;;16.91;32.60
40730;BME280;26418;50.070;8.436;2023-04-19T12:43:32;100394.41;;;17.06;33.41
40730;BME280;26418;50.070;8.436;2023-04-19T12:45:58;100394.41;;;17.27;30.67
40730;BME280;26418;50.070;8.436;2023-04-19T12:48:27;100402.94;;;17.25;31.02
40730;BME280;26418;50.070;8.436;2023-04-19T12:50:53;100401.34;;;17.24;30.04
40730;BME280;26418;50.070;8.436;2023-04-19T12:53:19;100397.41;;;17.13;30.44
40730;BME280;26418;50.070;8.436;2023-04-19T12:55:45;100398.16;;;17.01;30.92
40730;BME280;26418;50.070;8.436;2023-04-19T12:58:15;100398.41;;;17.08;32.16
40730;BME280;26418;50.070;8.436;2023-04-19T13:00:41;100387.22;;;17.22;32.91
40730;BME280;26418;50.070;8.436;2023-04-19T13:03:06;100393.16;;;17.24;30.68
40730;BME280;26418;50.070;8.436;2023-04-19T13:05:32;100385.34;;;17.14;30.31
40730;BME280;26418;50.070;8.436;2023-04-19T13:07:57;100401.63;;;17.10;29.56
40730;BME280;26418;50.070;8.436;2023-04-19T13:10:23;100383.09;;;16.95;29.63
40730;BME280;26418;50.070;8.436;2023-04-19T13:12:48;100384.34;;;16.97;30.28
40730;BME280;26418;50.070;8.436;2023-04-19T13:15:14;100368.78;;;16.89;28.90
40730;BME280;26418;50.070;8.436;2023-04-19T13:17:39;100368.66;;;16.86;27.81